sensor_id;sensor_type;location;lat;lon;timestamp;P1;durP1;ratioP1;P2;durP2;ratioP2
20040;SDS011;10181;48.072;9.884;2023-05-10T00:01:57;1.60;;;1.50;;
20040;SDS011;10181;48.072;9.884;2023-05-10T00:04:23;2.00;;;2.00;;
20040;SDS011;10181;48.072;9.884;2023-05-10T00:06:52;2.10;;;2.10;;
20040;SDS011;10181;48.072;9.884;2023-05-10T00:09:18;2.30;;;2.30;;
20040;SDS011;10181;48.072;9.884;2023-05-10T00:11:43;2.43;;;2.33;;
20040;SDS011;10181;48.072;9.884;2023-05-10T00:14:09;1.87;;;1.87;;
20040;SDS011;10181;48.072;9.884;2023-05-10T00:16:35;1.73;;;1.73;;
20040;SDS011;10181;48.072;9.884;2023-05-10T00:19:00;1.50;;;1.50;;
20040;SDS011;10181;48.072;9.884;2023-05-10T00:21:26;1.40;;;1.40;;
20040;SDS011;10181;48.072;9.884;2023-05-10T00:23:53;1.50;;;1.50;;
20040;SDS011;10181;48.072;9.884;2023-05-10T00:26:19;1.50;;;1.50;;
20040;SDS011;10181;48.072;9.884;2023-05-10T00:28:44;1.37;;;1.37;;
20040;SDS011;10181;48.072;9.884;2023-05-10T00:31:10;1.50;;;1.50;;
20040;SDS011;10181;48.072;9.884;2023-05-10T00:33:36;1.13;;;1.13;;
20040;SDS011;10181;48.072;9.884;2023-05-10T00:36:01;1.40;;;1.40;;
20040;SDS011;10181;48.072;9.884;2023-05-10T00:38:27;1.10;;;1.10;;
20040;SDS011;10181;48.072;9.884;2023-05-10T00:40:52;1.27;;;1.27;;
20040;SDS011;10181;48.072;9.884;2023-05-10T00:43:18;1.20;;;1.20;;
20040;SDS011;10181;48.072;9.884;2023-05-10T00:45:44;1.50;;;1.50;;
20040;SDS011;10181;48.072;9.884;2023-05-10T00:48:09;1.40;;;1.40;;
20040;SDS011;10181;48.072;9.884;2023-05-10T00:50:35;1.20;;;1.20;;
20040;SDS011;10181;48.072;9.884;2023-05-10T00:53:01;1.20;;;1.20;;
20040;SDS011;10181;48.072;9.884;2023-05-10T00:55:27;1.30;;;1.30;;
20040;SDS011;10181;48.072;9.884;2023-05-10T00:57:53;1.20;;;1.20;;
20040;SDS011;10181;48.072;9.884;2023-05-10T01:00:19;1.30;;;1.30;;
20040;SDS011;10181;48.072;9.884;2023-05-10T01:02:45;1.30;;;1.30;;
20040;SDS011;10181;48.072;9.884;2023-05-10T01:05:11;1.60;;;1.60;;
20040;SDS011;10181;48.072;9.884;2023-05-10T01:07:37;1.37;;;1.37;;
20040;SDS011;10181;48.072;9.884;2023-05-10T01:10:04;1.50;;;1.50;;
20040;SDS011;10181;48.072;9.884;2023-05-10T01:12:31;1.73;;;1.73;;
20040;SDS011;10181;48.072;9.884;2023-05-10T01:14:57;1.90;;;1.90;;
20040;SDS011;10181;48.072;9.884;2023-05-10T01:17:23;1.80;;;1.80;;
20040;SDS011;10181;48.072;9.884;2023-05-10T01:19:49;2.03;;;1.80;;
20040;SDS011;10181;48.072;9.884;2023-05-10T01:22:36;1.53;;;1.53;;
20040;SDS011;10181;48.072;9.884;2023-05-10T01:33:07;2.40;;;2.30;;
20040;SDS011;10181;48.072;9.884;2023-05-10T01:38:40;2.57;;;2.57;;
20040;SDS011;10181;48.072;9.884;2023-05-10T01:43:46;1.70;;;1.70;;
20040;SDS011;10181;48.072;9.884;2023-05-10T01:46:28;1.80;;;1.80;;
20040;SDS011;10181;48.072;9.884;2023-05-10T01:49:08;3.20;;;3.20;;
20040;SDS011;10181;48.072;9.884;2023-05-10T01:51:36;2.90;;;2.90;;
20040;SDS011;10181;48.072;9.884;2023-05-10T01:54:12;2.47;;;2.47;;
20040;SDS011;10181;48.072;9.884;2023-05-10T01:56:39;2.53;;;2.33;;
20040;SDS011;10181;48.072;9.884;2023-05-10T01:59:06;3.03;;;2.93;;
20040;SDS011;10181;48.072;9.884;2023-05-10T02:01:37;3.17;;;3.17;;
20040;SDS011;10181;48.072;9.884;2023-05-10T02:04:04;3.33;;;3.23;;
20040;SDS011;10181;48.072;9.884;2023-05-10T02:06:32;2.83;;;2.83;;
20040;SDS011;10181;48.072;9.884;2023-05-10T02:08:59;2.37;;;2.37;;
20040;SDS011;10181;48.072;9.884;2023-05-10T02:11:26;2.93;;;2.93;;
20040;SDS011;10181;48.072;9.884;2023-05-10T02:13:53;3.53;;;3.43;;
20040;SDS011;10181;48.072;9.884;2023-05-10T02:16:20;3.07;;;2.97;;
20040;SDS011;10181;48.072;9.884;2023-05-10T02:18:50;2.27;;;2.27;;
20040;SDS011;10181;48.072;9.884;2023-05-10T02:21:18;2.30;;;2.30;;
20040;SDS011;10181;48.072;9.884;2023-05-10T02:23:45;2.53;;;1.83;;
20040;SDS011;10181;48.072;9.884;2023-05-10T02:26:13;1.30;;;1.30;;
20040;SDS011;10181;48.072;9.884;2023-05-10T02:28:40;1.00;;;1.00;;
20040;SDS011;10181;48.072;9.884;2023-05-10T02:31:07;1.10;;;1.10;;
20040;SDS011;10181;48.072;9.884;2023-05-10T02:33:36;1.27;;;1.27;;
20040;SDS011;10181;48.072;9.884;2023-05-10T02:36:05;1.10;;;1.10;;
20040;SDS011;10181;48.072;9.884;2023-05-10T02:38:34;1.10;;;1.10;;
20040;SDS011;10181;48.072;9.884;2023-05-10T02:41:01;1.20;;;1.20;;
20040;SDS011;10181;48.072;9.884;2023-05-10T02:43:27;1.50;;;1.50;;
20040;SDS011;10181;48.072;9.884;2023-05-10T02:45:56;1.83;;;1.83;;
20040;SDS011;10181;48.072;9.884;2023-05-10T02:48:22;1.90;;;1.90;;
20040;SDS011;10181;48.072;9.884;2023-05-10T02:50:48;1.63;;;1.63;;
20040;SDS011;10181;48.072;9.884;2023-05-10T02:53:24;1.83;;;1.83;;
20040;SDS011;10181;48.072;9.884;2023-05-10T02:55:59;1.80;;;1.80;;
20040;SDS011;10181;48.072;9.884;2023-05-10T02:58:28;1.90;;;1.90;;
20040;SDS011;10181;48.072;9.884;2023-05-10T03:00:54;1.97;;;1.97;;
20040;SDS011;10181;48.072;9.884;2023-05-10T03:03:19;2.13;;;2.13;;
20040;SDS011;10181;48.072;9.884;2023-05-10T03:05:46;2.53;;;2.47;;
20040;SDS011;10181;48.072;9.884;2023-05-10T03:08:11;2.27;;;2.27;;
20040;SDS011;10181;48.072;9.884;2023-05-10T03:10:59;2.27;;;2.27;;
20040;SDS011;10181;48.072;9.884;2023-05-10T03:13:29;1.80;;;1.80;;
20040;SDS011;10181;48.072;9.884;2023-05-10T03:16:12;1.47;;;1.47;;
20040;SDS011;10181;48.072;9.884;2023-05-10T03:18:54;2.13;;;2.13;;
20040;SDS011;10181;48.072;9.884;2023-05-10T03:21:26;2.40;;;2.40;;
20040;SDS011;10181;48.072;9.884;2023-05-10T03:23:58;2.30;;;2.13;;
20040;SDS011;10181;48.072;9.884;2023-05-10T03:26:27;1.73;;;1.73;;
20040;SDS011;10181;48.072;9.884;2023-05-10T03:28:54;2.23;;;2.23;;
20040;SDS011;10181;48.072;9.884;2023-05-10T03:31:21;1.93;;;1.93;;
20040;SDS011;10181;48.072;9.884;2023-05-10T03:33:47;1.80;;;1.80;;
20040;SDS011;10181;48.072;9.884;2023-05-10T03:36:14;1.87;;;1.77;;
20040;SDS011;10181;48.072;9.884;2023-05-10T03:38:39;1.57;;;1.57;;
20040;SDS011;10181;48.072;9.884;2023-05-10T03:41:05;1.60;;;1.60;;
20040;SDS011;10181;48.072;9.884;2023-05-10T03:43:31;1.47;;;1.43;;
20040;SDS011;10181;48.072;9.884;2023-05-10T03:45:56;1.30;;;1.30;;
20040;SDS011;10181;48.072;9.884;2023-05-10T03:48:22;1.80;;;1.80;;
20040;SDS011;10181;48.072;9.884;2023-05-10T03:50:47;2.37;;;2.30;;
20040;SDS011;10181;48.072;9.884;2023-05-10T03:53:14;3.23;;;3.13;;
20040;SDS011;10181;48.072;9.884;2023-05-10T03:55:40;3.67;;;3.47;;
20040;SDS011;10181;48.072;9.884;2023-05-10T03:58:06;3.80;;;3.70;;
20040;SDS011;10181;48.072;9.884;2023-05-10T04:00:31;3.60;;;3.50;;
20040;SDS011;10181;48.072;9.884;2023-05-10T04:02:57;3.33;;;3.23;;
20040;SDS011;10181;48.072;9.884;2023-05-10T04:05:23;2.80;;;2.70;;
20040;SDS011;10181;48.072;9.884;2023-05-10T04:07:49;2.30;;;2.30;;
20040;SDS011;10181;48.072;9.884;2023-05-10T04:10:15;2.73;;;2.63;;
20040;SDS011;10181;48.072;9.884;2023-05-10T04:12:41;2.90;;;2.80;;
20040;SDS011;10181;48.072;9.884;2023-05-10T04:15:07;2.87;;;2.77;;
20040;SDS011;10181;48.072;9.884;2023-05-10T04:17:33;3.00;;;2.90;;
20040;SDS011;10181;48.072;9.884;2023-05-10T04:19:59;3.20;;;3.00;;
20040;SDS011;10181;48.072;9.884;2023-05-10T04:22:24;4.10;;;3.80;;
20040;SDS011;10181;48.072;9.884;2023-05-10T04:24:50;4.27;;;4.17;;
20040;SDS011;10181;48.072;9.884;2023-05-10T04:27:15;4.57;;;4.47;;
20040;SDS011;10181;48.072;9.884;2023-05-10T04:29:41;4.93;;;4.83;;
20040;SDS011;10181;48.072;9.884;2023-05-10T04:32:07;4.93;;;4.83;;
20040;SDS011;10181;48.072;9.884;2023-05-10T04:34:32;5.50;;;5.40;;
20040;SDS011;10181;48.072;9.884;2023-05-10T04:36:59;4.87;;;4.67;;
20040;SDS011;10181;48.072;9.884;2023-05-10T04:39:24;5.17;;;4.97;;
20040;SDS011;10181;48.072;9.884;2023-05-10T04:41:50;4.03;;;3.93;;
20040;SDS011;10181;48.072;9.884;2023-05-10T04:44:16;16.13;;;13.80;;
20040;SDS011;10181;48.072;9.884;2023-05-10T04:46:41;21.57;;;17.33;;
20040;SDS011;10181;48.072;9.884;2023-05-10T04:49:07;46.97;;;31.53;;
20040;SDS011;10181;48.072;9.884;2023-05-10T04:51:33;11.97;;;10.83;;
20040;SDS011;10181;48.072;9.884;2023-05-10T04:53:59;89.37;;;52.50;;
20040;SDS011;10181;48.072;9.884;2023-05-10T04:56:24;32.87;;;21.00;;
20040;SDS011;10181;48.072;9.884;2023-05-10T04:58:50;7.03;;;6.50;;
20040;SDS011;10181;48.072;9.884;2023-05-10T05:01:16;4.53;;;4.23;;
20040;SDS011;10181;48.072;9.884;2023-05-10T05:03:41;4.60;;;4.50;;
20040;SDS011;10181;48.072;9.884;2023-05-10T05:06:07;5.10;;;5.00;;
20040;SDS011;10181;48.072;9.884;2023-05-10T05:08:33;5.63;;;5.43;;
20040;SDS011;10181;48.072;9.884;2023-05-10T05:10:58;4.57;;;4.47;;
20040;SDS011;10181;48.072;9.884;2023-05-10T05:13:24;4.30;;;4.20;;
20040;SDS011;10181;48.072;9.884;2023-05-10T05:15:52;2.87;;;2.87;;
20040;SDS011;10181;48.072;9.884;2023-05-10T05:18:25;1.70;;;1.70;;
20040;SDS011;10181;48.072;9.884;2023-05-10T05:20:50;1.43;;;1.40;;
20040;SDS011;10181;48.072;9.884;2023-05-10T05:23:16;1.90;;;1.80;;
20040;SDS011;10181;48.072;9.884;2023-05-10T05:25:41;2.30;;;2.20;;
20040;SDS011;10181;48.072;9.884;2023-05-10T05:28:07;1.60;;;1.60;;
20040;SDS011;10181;48.072;9.884;2023-05-10T05:30:33;1.63;;;1.63;;
20040;SDS011;10181;48.072;9.884;2023-05-10T05:32:59;1.43;;;1.43;;
20040;SDS011;10181;48.072;9.884;2023-05-10T05:35:24;2.97;;;2.77;;
20040;SDS011;10181;48.072;9.884;2023-05-10T05:37:50;1.77;;;1.77;;
20040;SDS011;10181;48.072;9.884;2023-05-10T05:40:15;1.83;;;1.83;;
20040;SDS011;10181;48.072;9.884;2023-05-10T05:42:41;1.63;;;1.63;;
20040;SDS011;10181;48.072;9.884;2023-05-10T05:45:07;2.87;;;2.47;;
20040;SDS011;10181;48.072;9.884;2023-05-10T05:47:33;1.57;;;1.57;;
20040;SDS011;10181;48.072;9.884;2023-05-10T05:49:59;1.50;;;1.40;;
20040;SDS011;10181;48.072;9.884;2023-05-10T05:52:25;1.53;;;1.53;;
20040;SDS011;10181;48.072;9.884;2023-05-10T05:54:50;1.40;;;1.40;;
20040;SDS011;10181;48.072;9.884;2023-05-10T05:57:16;1.87;;;1.77;;
20040;SDS011;10181;48.072;9.884;2023-05-10T05:59:41;1.40;;;1.40;;
20040;SDS011;10181;48.072;9.884;2023-05-10T06:02:09;2.57;;;1.83;;
20040;SDS011;10181;48.072;9.884;2023-05-10T06:04:35;1.90;;;1.80;;
20040;SDS011;10181;48.072;9.884;2023-05-10T06:07:00;1.87;;;1.80;;
20040;SDS011;10181;48.072;9.884;2023-05-10T06:09:26;1.60;;;1.60;;
20040;SDS011;10181;48.072;9.884;2023-05-10T06:11:51;1.67;;;1.67;;
20040;SDS011;10181;48.072;9.884;2023-05-10T06:14:17;2.17;;;2.07;;
20040;SDS011;10181;48.072;9.884;2023-05-10T06:16:45;1.80;;;1.70;;
20040;SDS011;10181;48.072;9.884;2023-05-10T06:19:10;3.50;;;1.97;;
20040;SDS011;10181;48.072;9.884;2023-05-10T06:21:36;1.80;;;1.70;;
20040;SDS011;10181;48.072;9.884;2023-05-10T06:24:01;1.97;;;1.87;;
20040;SDS011;10181;48.072;9.884;2023-05-10T06:26:27;4.50;;;4.40;;
20040;SDS011;10181;48.072;9.884;2023-05-10T06:28:53;5.40;;;5.30;;
20040;SDS011;10181;48.072;9.884;2023-05-10T06:31:19;7.63;;;7.43;;
20040;SDS011;10181;48.072;9.884;2023-05-10T06:33:44;11.47;;;11.10;;
20040;SDS011;10181;48.072;9.884;2023-05-10T06:36:10;12.23;;;11.83;;
20040;SDS011;10181;48.072;9.884;2023-05-10T06:38:36;17.93;;;17.33;;
20040;SDS011;10181;48.072;9.884;2023-05-10T06:41:02;26.30;;;25.33;;
20040;SDS011;10181;48.072;9.884;2023-05-10T06:43:28;27.97;;;27.00;;
20040;SDS011;10181;48.072;9.884;2023-05-10T06:45:53;25.00;;;24.13;;
20040;SDS011;10181;48.072;9.884;2023-05-10T06:48:19;23.77;;;22.97;;
20040;SDS011;10181;48.072;9.884;2023-05-10T06:50:45;15.20;;;14.37;;
20040;SDS011;10181;48.072;9.884;2023-05-10T06:53:10;8.63;;;8.40;;
20040;SDS011;10181;48.072;9.884;2023-05-10T06:55:37;7.27;;;7.07;;
20040;SDS011;10181;48.072;9.884;2023-05-10T06:58:02;3.13;;;3.03;;
20040;SDS011;10181;48.072;9.884;2023-05-10T07:00:28;1.90;;;1.90;;
20040;SDS011;10181;48.072;9.884;2023-05-10T07:02:53;2.33;;;2.23;;
20040;SDS011;10181;48.072;9.884;2023-05-10T07:05:20;2.90;;;2.50;;
20040;SDS011;10181;48.072;9.884;2023-05-10T07:07:45;4.80;;;4.70;;
20040;SDS011;10181;48.072;9.884;2023-05-10T07:10:11;6.20;;;6.00;;
20040;SDS011;10181;48.072;9.884;2023-05-10T07:12:36;6.07;;;5.87;;
20040;SDS011;10181;48.072;9.884;2023-05-10T07:15:04;5.60;;;5.40;;
20040;SDS011;10181;48.072;9.884;2023-05-10T07:17:30;5.07;;;4.87;;
20040;SDS011;10181;48.072;9.884;2023-05-10T07:19:58;5.60;;;5.30;;
20040;SDS011;10181;48.072;9.884;2023-05-10T07:22:23;6.03;;;5.77;;
20040;SDS011;10181;48.072;9.884;2023-05-10T07:24:49;5.77;;;5.57;;
20040;SDS011;10181;48.072;9.884;2023-05-10T07:27:15;7.00;;;6.80;;
20040;SDS011;10181;48.072;9.884;2023-05-10T07:29:40;3.43;;;3.30;;
20040;SDS011;10181;48.072;9.884;2023-05-10T07:32:06;2.97;;;2.67;;
20040;SDS011;10181;48.072;9.884;2023-05-10T07:34:32;2.60;;;2.40;;
20040;SDS011;10181;48.072;9.884;2023-05-10T07:36:58;2.73;;;2.63;;
20040;SDS011;10181;48.072;9.884;2023-05-10T07:39:24;3.37;;;3.17;;
20040;SDS011;10181;48.072;9.884;2023-05-10T07:41:50;3.70;;;3.50;;
20040;SDS011;10181;48.072;9.884;2023-05-10T07:44:16;2.23;;;2.23;;
20040;SDS011;10181;48.072;9.884;2023-05-10T07:46:44;2.40;;;2.40;;
20040;SDS011;10181;48.072;9.884;2023-05-10T07:49:09;3.87;;;3.77;;
20040;SDS011;10181;48.072;9.884;2023-05-10T07:51:35;3.97;;;3.87;;
20040;SDS011;10181;48.072;9.884;2023-05-10T07:54:00;2.30;;;2.20;;
20040;SDS011;10181;48.072;9.884;2023-05-10T07:56:28;2.30;;;2.20;;
20040;SDS011;10181;48.072;9.884;2023-05-10T07:58:55;2.40;;;2.40;;
20040;SDS011;10181;48.072;9.884;2023-05-10T08:01:21;3.70;;;3.50;;
20040;SDS011;10181;48.072;9.884;2023-05-10T08:03:47;3.43;;;3.23;;
20040;SDS011;10181;48.072;9.884;2023-05-10T08:06:17;2.93;;;2.83;;
20040;SDS011;10181;48.072;9.884;2023-05-10T08:08:43;2.70;;;2.60;;
20040;SDS011;10181;48.072;9.884;2023-05-10T08:11:14;2.80;;;2.70;;
20040;SDS011;10181;48.072;9.884;2023-05-10T08:13:42;4.20;;;3.97;;
20040;SDS011;10181;48.072;9.884;2023-05-10T08:16:08;3.37;;;2.97;;
20040;SDS011;10181;48.072;9.884;2023-05-10T08:18:34;3.70;;;3.47;;
20040;SDS011;10181;48.072;9.884;2023-05-10T08:21:00;4.47;;;4.37;;
20040;SDS011;10181;48.072;9.884;2023-05-10T08:23:25;4.30;;;3.97;;
20040;SDS011;10181;48.072;9.884;2023-05-10T08:25:51;3.50;;;3.27;;
20040;SDS011;10181;48.072;9.884;2023-05-10T08:28:16;3.27;;;3.17;;
20040;SDS011;10181;48.072;9.884;2023-05-10T08:30:42;3.00;;;2.90;;
20040;SDS011;10181;48.072;9.884;2023-05-10T08:33:07;2.77;;;2.67;;
20040;SDS011;10181;48.072;9.884;2023-05-10T08:35:33;3.37;;;3.07;;
20040;SDS011;10181;48.072;9.884;2023-05-10T08:37:59;3.43;;;3.33;;
20040;SDS011;10181;48.072;9.884;2023-05-10T08:40:25;5.67;;;5.57;;
20040;SDS011;10181;48.072;9.884;2023-05-10T08:43:05;6.67;;;6.37;;
20040;SDS011;10181;48.072;9.884;2023-05-10T08:45:33;6.10;;;5.90;;
20040;SDS011;10181;48.072;9.884;2023-05-10T08:48:03;4.33;;;4.23;;
20040;SDS011;10181;48.072;9.884;2023-05-10T08:50:30;5.10;;;4.83;;
20040;SDS011;10181;48.072;9.884;2023-05-10T08:52:57;5.60;;;5.40;;
20040;SDS011;10181;48.072;9.884;2023-05-10T08:55:25;8.33;;;8.03;;
20040;SDS011;10181;48.072;9.884;2023-05-10T08:57:51;13.07;;;12.60;;
20040;SDS011;10181;48.072;9.884;2023-05-10T09:00:18;13.00;;;12.60;;
20040;SDS011;10181;48.072;9.884;2023-05-10T09:02:44;12.43;;;11.73;;
20040;SDS011;10181;48.072;9.884;2023-05-10T09:05:12;13.37;;;12.87;;
20040;SDS011;10181;48.072;9.884;2023-05-10T09:07:40;13.40;;;13.00;;
20040;SDS011;10181;48.072;9.884;2023-05-10T09:10:06;11.53;;;11.23;;
20040;SDS011;10181;48.072;9.884;2023-05-10T09:12:34;4.40;;;4.20;;
20040;SDS011;10181;48.072;9.884;2023-05-10T09:15:00;3.83;;;3.63;;
20040;SDS011;10181;48.072;9.884;2023-05-10T09:17:26;7.23;;;6.73;;
20040;SDS011;10181;48.072;9.884;2023-05-10T09:20:00;10.57;;;10.17;;
20040;SDS011;10181;48.072;9.884;2023-05-10T09:22:27;5.27;;;5.07;;
20040;SDS011;10181;48.072;9.884;2023-05-10T09:27:41;18.30;;;17.80;;
20040;SDS011;10181;48.072;9.884;2023-05-10T09:30:11;6.10;;;5.97;;
20040;SDS011;10181;48.072;9.884;2023-05-10T09:32:41;6.80;;;6.60;;
20040;SDS011;10181;48.072;9.884;2023-05-10T09:35:15;15.97;;;15.47;;
20040;SDS011;10181;48.072;9.884;2023-05-10T09:37:43;13.77;;;13.23;;
20040;SDS011;10181;48.072;9.884;2023-05-10T09:40:17;12.97;;;12.53;;
20040;SDS011;10181;48.072;9.884;2023-05-10T09:42:55;13.50;;;13.10;;
20040;SDS011;10181;48.072;9.884;2023-05-10T09:45:24;17.17;;;16.40;;
20040;SDS011;10181;48.072;9.884;2023-05-10T09:47:51;16.07;;;15.53;;
20040;SDS011;10181;48.072;9.884;2023-05-10T09:50:18;15.83;;;15.23;;
20040;SDS011;10181;48.072;9.884;2023-05-10T09:52:57;14.00;;;13.50;;
20040;SDS011;10181;48.072;9.884;2023-05-10T09:55:26;13.50;;;13.10;;
20040;SDS011;10181;48.072;9.884;2023-05-10T09:58:14;16.40;;;15.80;;
20040;SDS011;10181;48.072;9.884;2023-05-10T10:00:40;13.30;;;12.90;;
20040;SDS011;10181;48.072;9.884;2023-05-10T10:03:13;10.33;;;9.93;;
20040;SDS011;10181;48.072;9.884;2023-05-10T10:05:40;3.63;;;3.43;;
20040;SDS011;10181;48.072;9.884;2023-05-10T10:08:08;4.50;;;3.77;;
20040;SDS011;10181;48.072;9.884;2023-05-10T10:10:34;4.53;;;4.37;;
20040;SDS011;10181;48.072;9.884;2023-05-10T10:13:00;3.13;;;3.03;;
20040;SDS011;10181;48.072;9.884;2023-05-10T10:15:26;4.47;;;4.27;;
20040;SDS011;10181;48.072;9.884;2023-05-10T10:17:52;11.73;;;11.43;;
20040;SDS011;10181;48.072;9.884;2023-05-10T10:20:19;13.80;;;13.40;;
20040;SDS011;10181;48.072;9.884;2023-05-10T10:22:47;12.80;;;12.40;;
20040;SDS011;10181;48.072;9.884;2023-05-10T10:25:13;10.83;;;10.10;;
20040;SDS011;10181;48.072;9.884;2023-05-10T10:27:47;12.20;;;11.80;;
20040;SDS011;10181;48.072;9.884;2023-05-10T10:30:43;18.67;;;18.07;;
20040;SDS011;10181;48.072;9.884;2023-05-10T10:35:57;5.23;;;5.13;;
20040;SDS011;10181;48.072;9.884;2023-05-10T10:38:24;6.77;;;6.57;;
20040;SDS011;10181;48.072;9.884;2023-05-10T10:41:04;3.37;;;3.23;;
20040;SDS011;10181;48.072;9.884;2023-05-10T10:43:35;1.60;;;1.60;;
20040;SDS011;10181;48.072;9.884;2023-05-10T10:49:25;2.77;;;2.67;;
20040;SDS011;10181;48.072;9.884;2023-05-10T10:51:38;2.40;;;2.37;;
20040;SDS011;10181;48.072;9.884;2023-05-10T10:54:10;2.83;;;1.90;;
20040;SDS011;10181;48.072;9.884;2023-05-10T10:56:36;3.60;;;3.30;;
20040;SDS011;10181;48.072;9.884;2023-05-10T10:59:02;12.97;;;12.20;;
20040;SDS011;10181;48.072;9.884;2023-05-10T11:01:32;16.47;;;15.97;;
20040;SDS011;10181;48.072;9.884;2023-05-10T11:06:29;5.57;;;5.47;;
20040;SDS011;10181;48.072;9.884;2023-05-10T11:08:58;2.63;;;2.53;;
20040;SDS011;10181;48.072;9.884;2023-05-10T11:11:35;2.70;;;2.60;;
20040;SDS011;10181;48.072;9.884;2023-05-10T11:14:04;2.80;;;2.80;;
20040;SDS011;10181;48.072;9.884;2023-05-10T11:16:41;2.90;;;2.80;;
20040;SDS011;10181;48.072;9.884;2023-05-10T11:19:12;3.10;;;3.03;;
20040;SDS011;10181;48.072;9.884;2023-05-10T11:24:14;2.40;;;2.40;;
20040;SDS011;10181;48.072;9.884;2023-05-10T11:26:41;4.67;;;2.70;;
20040;SDS011;10181;48.072;9.884;2023-05-10T11:29:07;3.03;;;3.03;;
20040;SDS011;10181;48.072;9.884;2023-05-10T11:31:33;3.13;;;3.03;;
20040;SDS011;10181;48.072;9.884;2023-05-10T11:33:59;3.17;;;2.87;;
20040;SDS011;10181;48.072;9.884;2023-05-10T11:36:34;3.30;;;3.03;;
20040;SDS011;10181;48.072;9.884;2023-05-10T11:39:01;3.27;;;3.10;;
20040;SDS011;10181;48.072;9.884;2023-05-10T11:41:28;2.63;;;2.53;;
20040;SDS011;10181;48.072;9.884;2023-05-10T11:43:55;2.80;;;2.60;;
20040;SDS011;10181;48.072;9.884;2023-05-10T11:46:22;2.60;;;2.50;;
20040;SDS011;10181;48.072;9.884;2023-05-10T11:48:50;3.00;;;2.90;;
20040;SDS011;10181;48.072;9.884;2023-05-10T11:51:20;2.77;;;2.67;;
20040;SDS011;10181;48.072;9.884;2023-05-10T11:53:47;2.80;;;2.70;;
20040;SDS011;10181;48.072;9.884;2023-05-10T11:56:15;2.47;;;2.47;;
20040;SDS011;10181;48.072;9.884;2023-05-10T11:58:41;3.33;;;3.23;;
20040;SDS011;10181;48.072;9.884;2023-05-10T12:01:07;6.10;;;5.80;;
20040;SDS011;10181;48.072;9.884;2023-05-10T12:03:34;9.23;;;8.93;;
20040;SDS011;10181;48.072;9.884;2023-05-10T12:06:00;25.90;;;25.00;;
20040;SDS011;10181;48.072;9.884;2023-05-10T12:08:27;38.00;;;36.60;;
20040;SDS011;10181;48.072;9.884;2023-05-10T12:11:03;72.13;;;69.47;;
20040;SDS011;10181;48.072;9.884;2023-05-10T12:13:30;110.07;;;106.03;;
20040;SDS011;10181;48.072;9.884;2023-05-10T12:15:59;96.90;;;93.27;;
20040;SDS011;10181;48.072;9.884;2023-05-10T12:18:38;114.63;;;110.40;;
20040;SDS011;10181;48.072;9.884;2023-05-10T12:21:06;107.47;;;103.40;;
20040;SDS011;10181;48.072;9.884;2023-05-10T12:23:31;70.17;;;67.40;;
20040;SDS011;10181;48.072;9.884;2023-05-10T12:26:03;42.33;;;40.77;;
20040;SDS011;10181;48.072;9.884;2023-05-10T12:28:30;21.13;;;20.50;;
20040;SDS011;10181;48.072;9.884;2023-05-10T12:30:57;13.77;;;13.37;;
20040;SDS011;10181;48.072;9.884;2023-05-10T12:33:24;6.93;;;6.73;;
20040;SDS011;10181;48.072;9.884;2023-05-10T12:35:50;5.00;;;4.90;;
20040;SDS011;10181;48.072;9.884;2023-05-10T12:38:27;4.10;;;4.00;;
20040;SDS011;10181;48.072;9.884;2023-05-10T12:41:04;10.43;;;10.23;;
20040;SDS011;10181;48.072;9.884;2023-05-10T12:43:34;14.60;;;14.20;;
20040;SDS011;10181;48.072;9.884;2023-05-10T12:46:07;4.30;;;4.20;;
20040;SDS011;10181;48.072;9.884;2023-05-10T12:48:37;2.90;;;2.80;;
20040;SDS011;10181;48.072;9.884;2023-05-10T12:51:03;2.53;;;2.43;;
20040;SDS011;10181;48.072;9.884;2023-05-10T12:53:30;2.23;;;2.00;;
20040;SDS011;10181;48.072;9.884;2023-05-10T12:55:56;2.63;;;2.63;;
20040;SDS011;10181;48.072;9.884;2023-05-10T12:58:22;1.87;;;1.87;;
20040;SDS011;10181;48.072;9.884;2023-05-10T13:00:47;2.30;;;2.30;;
20040;SDS011;10181;48.072;9.884;2023-05-10T13:03:13;3.67;;;3.57;;
20040;SDS011;10181;48.072;9.884;2023-05-10T13:05:40;3.00;;;2.80;;
20040;SDS011;10181;48.072;9.884;2023-05-10T13:08:06;1.60;;;1.50;;
20040;SDS011;10181;48.072;9.884;2023-05-10T13:10:31;1.50;;;1.50;;
20040;SDS011;10181;48.072;9.884;2023-05-10T13:12:57;1.63;;;1.63;;
20040;SDS011;10181;48.072;9.884;2023-05-10T13:15:23;1.40;;;1.40;;
20040;SDS011;10181;48.072;9.884;2023-05-10T13:17:49;1.40;;;1.40;;
20040;SDS011;10181;48.072;9.884;2023-05-10T13:20:15;1.20;;;1.20;;
20040;SDS011;10181;48.072;9.884;2023-05-10T13:22:42;2.13;;;2.13;;
20040;SDS011;10181;48.072;9.884;2023-05-10T13:25:09;2.90;;;2.90;;
20040;SDS011;10181;48.072;9.884;2023-05-10T13:27:35;6.27;;;6.17;;
20040;SDS011;10181;48.072;9.884;2023-05-10T13:30:02;4.53;;;4.43;;
20040;SDS011;10181;48.072;9.884;2023-05-10T13:32:28;2.77;;;2.77;;
20040;SDS011;10181;48.072;9.884;2023-05-10T13:34:54;3.17;;;3.07;;
20040;SDS011;10181;48.072;9.884;2023-05-10T13:37:20;2.43;;;2.43;;
20040;SDS011;10181;48.072;9.884;2023-05-10T13:39:46;1.70;;;1.70;;
20040;SDS011;10181;48.072;9.884;2023-05-10T13:42:12;2.00;;;2.00;;
20040;SDS011;10181;48.072;9.884;2023-05-10T13:44:37;2.00;;;2.00;;
20040;SDS011;10181;48.072;9.884;2023-05-10T13:47:03;1.97;;;1.97;;
20040;SDS011;10181;48.072;9.884;2023-05-10T13:49:29;1.83;;;1.83;;
20040;SDS011;10181;48.072;9.884;2023-05-10T13:51:55;1.80;;;1.80;;
20040;SDS011;10181;48.072;9.884;2023-05-10T13:54:20;2.10;;;2.10;;
20040;SDS011;10181;48.072;9.884;2023-05-10T13:56:47;1.93;;;1.93;;
20040;SDS011;10181;48.072;9.884;2023-05-10T13:59:13;1.97;;;1.97;;
20040;SDS011;10181;48.072;9.884;2023-05-10T14:01:42;2.60;;;2.40;;
20040;SDS011;10181;48.072;9.884;2023-05-10T14:04:08;2.10;;;2.00;;
20040;SDS011;10181;48.072;9.884;2023-05-10T14:06:35;2.30;;;2.20;;
20040;SDS011;10181;48.072;9.884;2023-05-10T14:09:01;2.17;;;2.17;;
20040;SDS011;10181;48.072;9.884;2023-05-10T14:11:27;2.00;;;1.87;;
20040;SDS011;10181;48.072;9.884;2023-05-10T14:13:53;1.83;;;1.83;;
20040;SDS011;10181;48.072;9.884;2023-05-10T14:16:19;3.27;;;3.17;;
20040;SDS011;10181;48.072;9.884;2023-05-10T14:18:45;4.87;;;4.67;;
20040;SDS011;10181;48.072;9.884;2023-05-10T14:21:11;4.70;;;4.60;;
20040;SDS011;10181;48.072;9.884;2023-05-10T14:23:37;4.63;;;4.53;;
20040;SDS011;10181;48.072;9.884;2023-05-10T14:26:03;3.07;;;2.97;;
20040;SDS011;10181;48.072;9.884;2023-05-10T14:28:28;2.70;;;2.70;;
20040;SDS011;10181;48.072;9.884;2023-05-10T14:30:54;1.63;;;1.63;;
20040;SDS011;10181;48.072;9.884;2023-05-10T14:33:19;1.93;;;1.83;;
20040;SDS011;10181;48.072;9.884;2023-05-10T14:35:46;2.27;;;2.27;;
20040;SDS011;10181;48.072;9.884;2023-05-10T14:38:12;2.97;;;2.97;;
20040;SDS011;10181;48.072;9.884;2023-05-10T14:40:37;2.47;;;2.47;;
20040;SDS011;10181;48.072;9.884;2023-05-10T14:43:03;2.87;;;2.80;;
20040;SDS011;10181;48.072;9.884;2023-05-10T14:45:29;3.13;;;3.03;;
20040;SDS011;10181;48.072;9.884;2023-05-10T14:47:55;3.70;;;3.60;;
20040;SDS011;10181;48.072;9.884;2023-05-10T14:50:22;3.77;;;3.57;;
20040;SDS011;10181;48.072;9.884;2023-05-10T14:52:47;3.93;;;3.83;;
20040;SDS011;10181;48.072;9.884;2023-05-10T14:55:14;4.10;;;4.00;;
20040;SDS011;10181;48.072;9.884;2023-05-10T14:57:40;3.27;;;3.17;;
20040;SDS011;10181;48.072;9.884;2023-05-10T15:00:06;3.17;;;3.07;;
20040;SDS011;10181;48.072;9.884;2023-05-10T15:02:32;3.57;;;3.47;;
20040;SDS011;10181;48.072;9.884;2023-05-10T15:04:58;3.87;;;3.77;;
20040;SDS011;10181;48.072;9.884;2023-05-10T15:07:23;3.80;;;3.70;;
20040;SDS011;10181;48.072;9.884;2023-05-10T15:09:49;3.63;;;3.53;;
20040;SDS011;10181;48.072;9.884;2023-05-10T15:12:16;4.00;;;3.83;;